createdAt,value
2022-08-25T00:00:32.981Z,21.26
2022-08-25T00:01:33.207Z,21.23
2022-08-25T00:02:33.511Z,21.23
2022-08-25T00:03:36.000Z,21.25
2022-08-25T00:04:34.837Z,21.22
2022-08-25T00:05:34.066Z,21.23
2022-08-25T00:06:34.322Z,21.22
2022-08-25T00:07:34.549Z,21.23
2022-08-25T00:08:34.787Z,21.22
2022-08-25T00:09:35.016Z,21.23
2022-08-25T00:10:35.247Z,21.22
2022-08-25T00:11:35.478Z,21.23
2022-08-25T00:12:35.713Z,21.22
2022-08-25T00:13:35.952Z,21.22
2022-08-25T00:14:36.180Z,21.20
2022-08-25T00:15:36.474Z,21.20
2022-08-25T00:16:36.690Z,21.19
2022-08-25T00:17:36.936Z,21.19
2022-08-25T00:18:37.161Z,21.17
2022-08-25T00:19:37.453Z,21.15
2022-08-25T00:20:37.689Z,21.17
2022-08-25T00:21:38.872Z,21.15
2022-08-25T00:22:38.101Z,21.19
2022-08-25T00:23:38.321Z,21.19
2022-08-25T00:24:38.555Z,21.20
2022-08-25T00:25:38.802Z,21.15
2022-08-25T00:26:39.025Z,21.14
2022-08-25T00:27:39.254Z,21.14
2022-08-25T00:28:39.505Z,21.14
2022-08-25T00:29:39.739Z,21.14
2022-08-25T00:30:40.088Z,21.14
2022-08-25T00:31:40.317Z,21.11
2022-08-25T00:32:40.558Z,21.13
2022-08-25T00:33:40.793Z,21.14
2022-08-25T00:34:41.020Z,21.14
2022-08-25T00:35:41.245Z,21.14
2022-08-25T00:36:41.491Z,21.13
2022-08-25T00:37:41.710Z,21.13
2022-08-25T00:38:41.953Z,21.07
2022-08-25T00:39:42.184Z,21.08
2022-08-25T00:40:42.425Z,21.07
2022-08-25T00:41:42.654Z,21.04
2022-08-25T00:42:42.900Z,21.03
2022-08-25T00:43:43.138Z,21.01
2022-08-25T00:44:43.377Z,21.00
2022-08-25T00:45:43.613Z,20.98
2022-08-25T00:46:43.863Z,20.98
2022-08-25T00:47:44.487Z,20.98
2022-08-25T00:48:44.334Z,20.95
2022-08-25T00:49:44.570Z,20.96
2022-08-25T00:50:44.799Z,20.96
2022-08-25T00:51:45.020Z,20.96
2022-08-25T00:52:45.256Z,20.95
2022-08-25T00:53:45.495Z,20.98
2022-08-25T00:54:45.725Z,20.96
2022-08-25T00:55:45.949Z,20.93
2022-08-25T00:56:46.186Z,20.93
2022-08-25T00:57:47.412Z,20.93
2022-08-25T00:58:46.632Z,20.93
2022-08-25T00:59:46.868Z,20.90
2022-08-25T01:00:47.099Z,20.90
2022-08-25T01:01:47.381Z,20.86
2022-08-25T01:02:47.584Z,20.89
2022-08-25T01:03:47.810Z,20.89
2022-08-25T01:04:49.211Z,20.89
2022-08-25T01:05:48.292Z,20.88
2022-08-25T01:06:48.528Z,20.86
2022-08-25T01:07:48.789Z,20.83
2022-08-25T01:08:48.976Z,20.80
2022-08-25T01:09:49.199Z,20.80
2022-08-25T01:10:49.440Z,20.77
2022-08-25T01:11:49.710Z,20.78
2022-08-25T01:12:49.948Z,20.75
2022-08-25T01:13:50.178Z,20.77
2022-08-25T01:14:50.417Z,20.75
2022-08-25T01:15:50.695Z,20.75
2022-08-25T01:16:51.183Z,20.75
2022-08-25T01:17:51.140Z,20.75
2022-08-25T01:18:51.377Z,20.75
2022-08-25T01:19:51.607Z,20.75
2022-08-25T01:20:51.831Z,20.75
2022-08-25T01:21:52.051Z,20.74
2022-08-25T01:22:55.321Z,20.74
2022-08-25T01:23:52.567Z,20.75
2022-08-25T01:24:52.813Z,20.74
2022-08-25T01:25:53.032Z,20.74
2022-08-25T01:26:53.268Z,20.71
2022-08-25T01:27:53.503Z,20.70
2022-08-25T01:28:53.750Z,20.68
2022-08-25T01:29:53.980Z,20.68
2022-08-25T01:30:54.245Z,20.67
2022-08-25T01:31:54.396Z,20.70
2022-08-25T01:32:54.696Z,20.67
2022-08-25T01:33:54.895Z,20.70
2022-08-25T01:34:55.129Z,20.68
2022-08-25T01:35:55.354Z,20.70
2022-08-25T01:36:55.586Z,20.68
2022-08-25T01:37:55.837Z,20.68
2022-08-25T01:38:56.064Z,20.67
2022-08-25T01:39:56.348Z,20.67
2022-08-25T01:40:56.566Z,20.68
2022-08-25T01:41:56.790Z,20.66
2022-08-25T01:42:57.045Z,20.66
2022-08-25T01:43:57.266Z,20.64
2022-08-25T01:44:57.509Z,20.63
2022-08-25T01:45:57.762Z,20.63
2022-08-25T01:46:57.984Z,20.64
2022-08-25T01:47:58.226Z,20.63
2022-08-25T01:48:58.456Z,20.64
2022-08-25T01:49:58.694Z,20.60
2022-08-25T01:50:58.915Z,20.60
2022-08-25T01:51:59.145Z,20.59
2022-08-25T01:52:59.389Z,20.55
2022-08-25T01:53:59.614Z,20.53
2022-08-25T01:54:59.876Z,20.53
2022-08-25T01:56:00.114Z,20.55
2022-08-25T01:57:00.347Z,20.55
2022-08-25T01:58:00.604Z,20.53
2022-08-25T01:59:00.838Z,20.50
2022-08-25T02:00:01.069Z,20.50
2022-08-25T02:01:01.308Z,20.50
2022-08-25T02:02:01.530Z,20.49
2022-08-25T02:03:01.867Z,20.48
2022-08-25T02:04:01.999Z,20.49
2022-08-25T02:05:02.193Z,20.48
2022-08-25T02:06:04.227Z,20.50
2022-08-25T02:07:02.780Z,20.49
2022-08-25T02:08:03.121Z,20.46
2022-08-25T02:09:03.196Z,20.46
2022-08-25T02:10:03.675Z,20.44
2022-08-25T02:11:03.672Z,20.46
2022-08-25T02:12:03.898Z,20.44
2022-08-25T02:13:04.151Z,20.46
2022-08-25T02:14:04.384Z,20.46
2022-08-25T02:15:04.615Z,20.42
2022-08-25T02:16:04.845Z,20.40
2022-08-25T02:17:05.147Z,20.42
2022-08-25T02:18:05.538Z,20.40
2022-08-25T02:19:05.471Z,20.39
2022-08-25T02:20:05.711Z,20.40
2022-08-25T02:21:05.958Z,20.40
2022-08-25T02:22:06.191Z,20.39
2022-08-25T02:23:06.446Z,20.40
2022-08-25T02:24:06.687Z,20.39
2022-08-25T02:25:06.917Z,20.36
2022-08-25T02:26:07.157Z,20.37
2022-08-25T02:27:07.389Z,20.34
2022-08-25T02:28:07.657Z,20.34
2022-08-25T02:29:07.887Z,20.34
2022-08-25T02:30:08.125Z,20.34
2022-08-25T02:31:08.390Z,20.33
2022-08-25T02:32:08.599Z,20.33
2022-08-25T02:33:08.883Z,20.32
2022-08-25T02:34:09.113Z,20.30
2022-08-25T02:35:09.342Z,20.32
2022-08-25T02:36:09.577Z,20.29
2022-08-25T02:37:09.813Z,20.30
2022-08-25T02:38:10.072Z,20.32
2022-08-25T02:39:10.317Z,20.30
2022-08-25T02:40:10.619Z,20.29
2022-08-25T02:41:10.842Z,20.27
2022-08-25T02:42:11.076Z,20.24
2022-08-25T02:43:11.346Z,20.24
2022-08-25T02:44:11.572Z,20.24
2022-08-25T02:45:11.792Z,20.22
2022-08-25T02:46:12.124Z,20.19
2022-08-25T02:47:12.241Z,20.19
2022-08-25T02:48:12.503Z,20.18
2022-08-25T02:49:12.743Z,20.18
2022-08-25T02:50:12.974Z,20.17
2022-08-25T02:51:13.204Z,20.18
2022-08-25T02:52:13.436Z,20.17
2022-08-25T02:53:13.682Z,20.15
2022-08-25T02:54:13.919Z,20.17
2022-08-25T02:55:14.260Z,20.15
2022-08-25T02:56:14.368Z,20.14
2022-08-25T02:57:14.605Z,20.12
2022-08-25T02:58:14.850Z,20.15
2022-08-25T02:59:15.083Z,20.17
2022-08-25T03:00:15.319Z,20.15
2022-08-25T03:01:15.610Z,20.15
2022-08-25T03:02:15.761Z,20.15
2022-08-25T03:03:16.012Z,20.14
2022-08-25T03:04:16.249Z,20.15
2022-08-25T03:05:16.553Z,20.14
2022-08-25T03:06:16.715Z,20.15
2022-08-25T03:07:16.951Z,20.12
2022-08-25T03:08:17.155Z,20.11
2022-08-25T03:09:17.402Z,20.12
2022-08-25T03:10:17.629Z,20.11
2022-08-25T03:11:17.850Z,20.10
2022-08-25T03:12:18.089Z,20.11
2022-08-25T03:13:18.327Z,20.11
2022-08-25T03:14:18.561Z,20.10
2022-08-25T03:15:18.800Z,20.08
2022-08-25T03:16:19.157Z,20.04
2022-08-25T03:17:19.290Z,20.04
2022-08-25T03:18:19.522Z,20.04
2022-08-25T03:19:19.754Z,20.04
2022-08-25T03:20:19.997Z,20.04
2022-08-25T03:21:20.240Z,20.04
2022-08-25T03:22:20.464Z,20.04
2022-08-25T03:23:20.724Z,20.03
2022-08-25T03:24:21.007Z,20.04
2022-08-25T03:25:24.154Z,20.03
2022-08-25T03:26:21.418Z,20.03
2022-08-25T03:27:21.656Z,20.03
2022-08-25T03:28:25.010Z,20.03
2022-08-25T03:29:23.111Z,20.02
2022-08-25T03:30:22.353Z,20.00
2022-08-25T03:31:22.648Z,19.99
2022-08-25T03:32:22.877Z,19.99
2022-08-25T03:33:23.135Z,19.99
2022-08-25T03:34:23.399Z,19.97
2022-08-25T03:35:23.648Z,19.97
2022-08-25T03:36:23.889Z,19.94
2022-08-25T03:37:24.194Z,19.96
2022-08-25T03:38:24.339Z,19.94
2022-08-25T03:39:24.595Z,19.94
2022-08-25T03:40:24.904Z,19.93
2022-08-25T03:41:25.615Z,19.93
2022-08-25T03:42:25.273Z,19.93
2022-08-25T03:43:25.564Z,19.93
2022-08-25T03:44:25.822Z,19.94
2022-08-25T03:45:26.092Z,19.90
2022-08-25T03:46:26.363Z,19.90
2022-08-25T03:47:26.616Z,19.92
2022-08-25T03:48:26.865Z,19.89
2022-08-25T03:49:27.115Z,19.90
2022-08-25T03:50:27.377Z,19.85
2022-08-25T03:51:27.625Z,19.85
2022-08-25T03:52:27.873Z,19.87
2022-08-25T03:53:28.137Z,19.84
2022-08-25T03:54:28.383Z,19.85
2022-08-25T03:55:28.628Z,19.84
2022-08-25T03:56:28.904Z,19.85
2022-08-25T03:57:29.136Z,19.84
2022-08-25T03:58:29.393Z,19.84
2022-08-25T03:59:29.626Z,19.85
2022-08-25T04:00:29.861Z,19.84
2022-08-25T04:01:30.220Z,19.84
2022-08-25T04:02:30.414Z,19.85
2022-08-25T04:03:30.667Z,19.82
2022-08-25T04:04:30.888Z,19.81
2022-08-25T04:05:31.111Z,19.84
2022-08-25T04:06:31.404Z,19.82
2022-08-25T04:07:31.949Z,19.79
2022-08-25T04:08:31.994Z,19.81
2022-08-25T04:09:35.225Z,19.78
2022-08-25T04:10:32.485Z,19.78
2022-08-25T04:11:32.729Z,19.78
2022-08-25T04:12:33.002Z,19.77
2022-08-25T04:13:33.280Z,19.74
2022-08-25T04:14:33.537Z,19.75
2022-08-25T04:15:33.782Z,19.75
2022-08-25T04:16:34.067Z,19.74
2022-08-25T04:17:34.389Z,19.75
2022-08-25T04:18:34.526Z,19.75
2022-08-25T04:19:34.784Z,19.78
2022-08-25T04:20:35.037Z,19.78
2022-08-25T04:21:35.323Z,19.81
2022-08-25T04:22:36.718Z,19.78
2022-08-25T04:23:35.866Z,19.78
2022-08-25T04:24:36.111Z,19.79
2022-08-25T04:25:43.352Z,19.77
2022-08-25T04:26:37.312Z,19.81
2022-08-25T04:27:39.481Z,19.79
2022-08-25T04:28:37.061Z,19.81
2022-08-25T04:29:37.292Z,19.79
2022-08-25T04:30:37.520Z,19.82
2022-08-25T04:31:37.794Z,19.82
2022-08-25T04:32:38.024Z,19.84
2022-08-25T04:33:38.279Z,19.87
2022-08-25T04:34:38.511Z,19.87
2022-08-25T04:35:38.741Z,19.90
2022-08-25T04:36:38.994Z,19.89
2022-08-25T04:37:39.235Z,19.93
2022-08-25T04:38:39.500Z,19.93
2022-08-25T04:39:39.771Z,19.96
2022-08-25T04:40:40.007Z,19.99
2022-08-25T04:41:40.233Z,20.00
2022-08-25T04:42:40.485Z,20.03
2022-08-25T04:43:40.719Z,20.04
2022-08-25T04:44:40.951Z,20.04
2022-08-25T04:45:41.261Z,20.04
2022-08-25T04:46:41.429Z,20.08
2022-08-25T04:47:41.679Z,20.11
2022-08-25T04:48:41.940Z,20.14
2022-08-25T04:49:42.188Z,20.17
2022-08-25T04:50:42.426Z,20.17
2022-08-25T04:51:42.695Z,20.17
2022-08-25T04:52:42.919Z,20.19
2022-08-25T04:53:43.145Z,20.22
2022-08-25T04:54:43.380Z,20.21
2022-08-25T04:55:43.612Z,20.27
2022-08-25T04:56:43.839Z,20.30
2022-08-25T04:57:44.077Z,20.33
2022-08-25T04:58:44.311Z,20.34
2022-08-25T04:59:44.536Z,20.37
2022-08-25T05:00:44.811Z,20.39
2022-08-25T05:01:45.028Z,20.40
2022-08-25T05:02:45.308Z,20.44
2022-08-25T05:03:45.692Z,20.48
2022-08-25T05:04:45.882Z,20.50
2022-08-25T05:05:45.928Z,20.52
2022-08-25T05:06:46.173Z,20.50
2022-08-25T05:07:46.412Z,20.53
2022-08-25T05:08:47.479Z,20.55
2022-08-25T05:09:46.920Z,20.59
2022-08-25T05:10:47.147Z,20.58
2022-08-25T05:11:47.404Z,20.60
2022-08-25T05:12:47.656Z,20.58
2022-08-25T05:13:51.256Z,20.59
2022-08-25T05:14:48.116Z,20.60
2022-08-25T05:15:48.348Z,20.60
2022-08-25T05:16:48.687Z,20.59
2022-08-25T05:17:51.641Z,20.59
2022-08-25T05:18:50.017Z,20.56
2022-08-25T05:19:49.275Z,20.59
2022-08-25T05:20:49.523Z,20.58
2022-08-25T05:21:49.738Z,20.55
2022-08-25T05:22:49.972Z,20.55
2022-08-25T05:23:50.194Z,20.56
2022-08-25T05:24:50.441Z,20.56
2022-08-25T05:25:50.668Z,20.55
2022-08-25T05:26:50.905Z,20.52
2022-08-25T05:27:51.133Z,20.53
2022-08-25T05:28:51.358Z,20.50
2022-08-25T05:29:51.608Z,20.48
2022-08-25T05:30:51.832Z,20.49
2022-08-25T05:31:52.129Z,20.53
2022-08-25T05:32:52.345Z,20.59
2022-08-25T05:33:52.600Z,20.63
2022-08-25T05:34:52.835Z,20.60
2022-08-25T05:35:53.057Z,20.64
2022-08-25T05:36:53.298Z,20.67
2022-08-25T05:37:53.517Z,20.68
2022-08-25T05:38:53.776Z,20.74
2022-08-25T05:39:54.102Z,20.82
2022-08-25T05:40:54.307Z,20.86
2022-08-25T05:41:54.520Z,20.90
2022-08-25T05:42:54.750Z,20.93
2022-08-25T05:43:54.994Z,20.93
2022-08-25T05:44:55.224Z,20.92
2022-08-25T05:45:55.487Z,20.86
2022-08-25T05:46:55.690Z,20.82
2022-08-25T05:47:55.917Z,20.73
2022-08-25T05:48:56.186Z,20.70
2022-08-25T05:49:56.393Z,20.64
2022-08-25T05:50:56.677Z,20.59
2022-08-25T05:51:56.918Z,20.63
2022-08-25T05:52:57.168Z,20.67
2022-08-25T05:53:57.380Z,20.66
2022-08-25T05:54:57.627Z,20.67
2022-08-25T05:55:57.837Z,20.67
2022-08-25T05:56:58.070Z,20.73
2022-08-25T05:57:58.248Z,20.82
2022-08-25T05:58:58.495Z,20.89
2022-08-25T05:59:58.716Z,20.92
2022-08-25T06:00:59.017Z,20.93
2022-08-25T06:01:59.212Z,20.96
2022-08-25T06:02:59.454Z,21.00
2022-08-25T06:03:59.730Z,21.05
2022-08-25T06:04:59.857Z,21.05
2022-08-25T06:06:00.079Z,21.11
2022-08-25T06:07:00.300Z,21.14
2022-08-25T06:08:00.516Z,21.19
2022-08-25T06:09:00.775Z,21.17
2022-08-25T06:10:00.988Z,21.20
2022-08-25T06:11:01.224Z,21.22
2022-08-25T06:12:01.446Z,21.22
2022-08-25T06:13:01.692Z,21.20
2022-08-25T06:14:01.919Z,21.20
2022-08-25T06:15:02.144Z,21.25
2022-08-25T06:16:02.422Z,21.29
2022-08-25T06:17:02.623Z,21.28
2022-08-25T06:18:03.485Z,21.30
2022-08-25T06:19:03.072Z,21.32
2022-08-25T06:20:03.313Z,21.25
2022-08-25T06:21:03.526Z,21.17
2022-08-25T06:22:03.759Z,21.10
2022-08-25T06:23:03.977Z,21.08
2022-08-25T06:24:04.214Z,21.04
2022-08-25T06:25:04.443Z,21.08
2022-08-25T06:26:04.672Z,21.13
2022-08-25T06:27:04.881Z,21.07
2022-08-25T06:28:05.342Z,21.07
2022-08-25T06:29:05.318Z,21.10
2022-08-25T06:30:07.891Z,21.10
2022-08-25T06:31:05.802Z,21.13
2022-08-25T06:32:06.024Z,21.10
2022-08-25T06:33:06.772Z,21.14
2022-08-25T06:34:06.450Z,21.15
2022-08-25T06:35:06.676Z,21.19
2022-08-25T06:36:06.915Z,21.20
2022-08-25T06:37:07.139Z,21.25
2022-08-25T06:38:07.495Z,21.28
2022-08-25T06:39:07.628Z,21.30
2022-08-25T06:40:07.894Z,21.30
2022-08-25T06:41:08.085Z,21.28
2022-08-25T06:42:08.310Z,21.26
2022-08-25T06:43:08.535Z,21.26
2022-08-25T06:44:08.765Z,21.23
2022-08-25T06:45:08.979Z,21.22
2022-08-25T06:46:09.199Z,21.23
2022-08-25T06:47:09.451Z,21.23
2022-08-25T06:48:09.671Z,21.29
2022-08-25T06:49:09.903Z,21.33
2022-08-25T06:50:10.128Z,21.41
2022-08-25T06:51:10.346Z,21.44
2022-08-25T06:52:10.569Z,21.43
2022-08-25T06:53:10.788Z,21.44
2022-08-25T06:54:11.047Z,21.45
2022-08-25T06:55:11.262Z,21.50
2022-08-25T06:56:11.483Z,21.54
2022-08-25T06:57:11.688Z,21.56
2022-08-25T06:58:11.987Z,21.53
2022-08-25T06:59:12.228Z,21.53
2022-08-25T07:00:12.606Z,21.47
2022-08-25T07:01:19.594Z,21.44
2022-08-25T07:02:13.904Z,21.40
2022-08-25T07:03:13.106Z,21.41
2022-08-25T07:04:13.474Z,21.44
2022-08-25T07:05:26.711Z,21.50
2022-08-25T07:06:14.673Z,21.51
2022-08-25T07:07:13.834Z,21.54
2022-08-25T07:08:14.059Z,21.58
2022-08-25T07:09:14.303Z,21.59
2022-08-25T07:10:14.523Z,21.65
2022-08-25T07:11:16.553Z,21.66
2022-08-25T07:12:14.901Z,21.72
2022-08-25T07:13:15.122Z,21.74
2022-08-25T07:14:15.365Z,21.70
2022-08-25T07:15:20.386Z,21.68
2022-08-25T07:16:16.770Z,21.68
2022-08-25T07:17:15.945Z,21.74
2022-08-25T07:18:16.172Z,21.75
2022-08-25T07:19:16.425Z,21.74
2022-08-25T07:20:16.644Z,21.72
2022-08-25T07:21:17.447Z,21.81
2022-08-25T07:22:17.029Z,21.84
2022-08-25T07:23:17.204Z,21.91
2022-08-25T07:24:17.451Z,21.89
2022-08-25T07:25:17.782Z,21.84
2022-08-25T07:27:19.029Z,21.83
2022-08-25T07:28:18.238Z,21.83
2022-08-25T07:29:18.506Z,21.88
2022-08-25T07:30:18.708Z,21.96
2022-08-25T07:31:18.985Z,22.04
2022-08-25T07:32:19.192Z,22.12
2022-08-25T07:33:19.430Z,22.18
2022-08-25T07:34:19.662Z,22.19
2022-08-25T07:35:19.903Z,22.12
2022-08-25T07:36:20.132Z,22.16
2022-08-25T07:37:38.328Z,22.22
2022-08-25T07:38:21.562Z,22.30
2022-08-25T07:39:21.945Z,22.41
2022-08-25T07:40:21.069Z,22.49
2022-08-25T07:41:21.158Z,22.55
2022-08-25T07:42:21.372Z,22.68
2022-08-25T07:43:21.597Z,22.80
2022-08-25T07:44:21.780Z,22.91
2022-08-25T07:45:22.011Z,22.96
2022-08-25T07:46:22.282Z,22.98
2022-08-25T07:47:23.046Z,22.99
2022-08-25T07:48:22.656Z,22.98
2022-08-25T07:49:23.333Z,22.98
2022-08-25T07:50:23.082Z,22.98
2022-08-25T07:51:23.325Z,23.07
2022-08-25T07:52:23.513Z,23.21
2022-08-25T07:53:23.722Z,23.20
2022-08-25T07:54:23.952Z,23.13
2022-08-25T07:55:25.111Z,23.13
2022-08-25T07:56:24.321Z,23.21
2022-08-25T07:57:24.592Z,23.32
2022-08-25T07:58:24.804Z,23.44
2022-08-25T07:59:25.023Z,23.54
2022-08-25T08:00:25.219Z,23.58
2022-08-25T08:01:25.516Z,23.51
2022-08-25T08:02:25.718Z,23.40
2022-08-25T08:03:44.624Z,23.34
2022-08-25T08:04:27.182Z,23.34
2022-08-25T08:05:26.305Z,23.33
2022-08-25T08:06:26.505Z,23.40
2022-08-25T08:07:43.230Z,23.44
2022-08-25T08:08:27.864Z,23.45
2022-08-25T08:09:27.116Z,23.49
2022-08-25T08:11:03.311Z,23.55
2022-08-25T08:11:28.520Z,23.54
2022-08-25T08:12:27.711Z,23.51
2022-08-25T08:13:27.904Z,23.47
2022-08-25T08:14:28.114Z,23.44
2022-08-25T08:15:29.571Z,23.55
2022-08-25T08:16:28.588Z,23.66
2022-08-25T08:17:28.788Z,23.71
2022-08-25T08:18:29.059Z,23.89
2022-08-25T08:19:29.149Z,23.91
2022-08-25T08:20:29.386Z,23.92
2022-08-25T08:21:29.572Z,24.04
2022-08-25T08:22:29.787Z,24.34
2022-08-25T08:23:30.042Z,24.71
2022-08-25T08:24:44.575Z,25.12
2022-08-25T08:25:31.400Z,25.36
2022-08-25T08:26:55.346Z,25.49
2022-08-25T08:27:31.805Z,25.76
2022-08-25T08:28:31.025Z,25.99
2022-08-25T08:29:31.227Z,26.11
2022-08-25T08:30:31.467Z,26.13
2022-08-25T08:31:31.679Z,26.08
2022-08-25T08:32:53.005Z,26.03
2022-08-25T08:33:33.066Z,25.91
2022-08-25T08:34:33.205Z,25.93
2022-08-25T08:35:32.382Z,25.85
2022-08-25T08:36:32.573Z,25.85
2022-08-25T08:37:32.764Z,26.42
2022-08-25T08:38:32.891Z,26.64
2022-08-25T08:39:33.059Z,27.04
2022-08-25T08:40:33.297Z,27.41
2022-08-25T08:41:40.092Z,28.04
2022-08-25T08:42:34.546Z,28.34
2022-08-25T08:43:33.711Z,28.75
2022-08-25T08:44:33.946Z,28.68
2022-08-25T08:45:35.594Z,29.18
2022-08-25T08:46:35.275Z,29.37
2022-08-25T08:47:34.410Z,29.21
2022-08-25T08:48:34.591Z,29.05
2022-08-25T08:49:34.758Z,28.84
2022-08-25T08:50:34.921Z,28.60
2022-08-25T08:51:35.043Z,28.86
2022-08-25T08:52:35.234Z,29.05
2022-08-25T08:53:35.381Z,29.55
2022-08-25T08:54:36.200Z,29.74
2022-08-25T08:55:35.651Z,30.11
2022-08-25T08:56:35.822Z,30.49
2022-08-25T08:57:36.059Z,30.80
2022-08-25T08:58:36.106Z,31.08
2022-08-25T08:59:36.247Z,31.26
2022-08-25T09:00:36.387Z,31.50
2022-08-25T09:01:36.622Z,31.26
2022-08-25T09:02:39.396Z,30.71
2022-08-25T09:03:39.581Z,30.59
2022-08-25T09:04:36.858Z,30.76
2022-08-25T09:05:41.860Z,30.88
2022-08-25T09:06:38.057Z,31.18
2022-08-25T09:07:37.210Z,30.76
2022-08-25T09:08:38.300Z,30.63
2022-08-25T09:09:38.381Z,30.24
2022-08-25T09:10:37.461Z,30.10
2022-08-25T09:11:37.570Z,30.20
2022-08-25T09:12:37.783Z,30.55
2022-08-25T09:13:37.791Z,30.31
2022-08-25T09:14:37.859Z,30.02
2022-08-25T09:15:41.038Z,29.61
2022-08-25T09:16:38.181Z,29.13
2022-08-25T09:17:38.237Z,29.03
2022-08-25T09:18:41.196Z,28.59
2022-08-25T09:19:41.928Z,28.55
2022-08-25T09:20:38.522Z,28.46
2022-08-25T09:21:38.628Z,28.31
2022-08-25T09:22:38.784Z,28.41
2022-08-25T09:23:38.926Z,28.56
2022-08-25T09:24:39.086Z,28.60
2022-08-25T09:25:52.527Z,28.52
2022-08-25T09:26:40.304Z,28.55
2022-08-25T09:27:39.461Z,28.60
2022-08-25T09:28:39.615Z,29.10
2022-08-25T09:29:39.762Z,29.40
2022-08-25T09:30:39.904Z,29.46
2022-08-25T09:31:40.140Z,29.42
2022-08-25T09:32:40.195Z,29.32
2022-08-25T09:33:40.342Z,29.34
2022-08-25T09:34:40.457Z,28.71
2022-08-25T09:35:40.605Z,27.85
2022-08-25T09:36:40.763Z,27.38
2022-08-25T09:37:40.927Z,27.10
2022-08-25T09:38:41.112Z,27.13
2022-08-25T09:39:41.267Z,27.29
2022-08-25T09:40:41.450Z,27.45
2022-08-25T09:41:41.586Z,27.68
2022-08-25T09:42:41.781Z,28.00
2022-08-25T09:43:41.930Z,28.18
2022-08-25T09:44:42.104Z,28.06
2022-08-25T09:45:42.545Z,28.03
2022-08-25T09:46:42.442Z,28.08
2022-08-25T09:47:42.620Z,28.62
2022-08-25T09:48:42.769Z,29.22
2022-08-25T09:49:42.949Z,29.68
2022-08-25T09:50:46.794Z,29.87
2022-08-25T09:51:43.443Z,30.16
2022-08-25T09:52:43.371Z,30.65
2022-08-25T09:53:43.504Z,31.15
2022-08-25T09:54:46.687Z,31.50
2022-08-25T09:55:43.804Z,32.08
2022-08-25T09:56:43.981Z,32.49
2022-08-25T09:57:44.131Z,33.08
2022-08-25T09:58:44.247Z,33.57
2022-08-25T09:59:57.375Z,34.04
2022-08-25T10:00:45.457Z,34.56
2022-08-25T10:01:44.634Z,34.88
2022-08-25T10:02:44.665Z,35.00
2022-08-25T10:03:44.763Z,34.86
2022-08-25T10:04:44.915Z,34.33
2022-08-25T10:05:44.913Z,33.36
2022-08-25T10:06:45.000Z,32.59
2022-08-25T10:07:45.625Z,32.45
2022-08-25T10:08:46.105Z,32.07
2022-08-25T10:09:45.189Z,31.42
2022-08-25T10:10:45.262Z,31.51
2022-08-25T10:11:45.354Z,31.62
2022-08-25T10:12:45.469Z,31.72
2022-08-25T10:13:46.497Z,31.73
2022-08-25T10:14:45.581Z,31.48
2022-08-25T10:15:45.734Z,31.14
2022-08-25T10:16:47.046Z,30.74
2022-08-25T10:17:45.961Z,30.14
2022-08-25T10:18:45.971Z,30.01
2022-08-25T10:19:46.079Z,29.87
2022-08-25T10:20:46.200Z,29.76
2022-08-25T10:21:46.341Z,29.77
2022-08-25T10:22:48.300Z,29.83
2022-08-25T10:23:46.566Z,29.71
2022-08-25T10:24:46.626Z,30.31
2022-08-25T10:25:57.719Z,30.78
2022-08-25T10:26:49.504Z,31.47
2022-08-25T10:27:49.666Z,31.52
2022-08-25T10:28:46.994Z,31.51
2022-08-25T10:29:47.123Z,31.69
2022-08-25T10:30:47.274Z,30.96
2022-08-25T10:31:47.388Z,30.63
2022-08-25T10:32:47.524Z,30.38
2022-08-25T10:33:47.642Z,30.58
2022-08-25T10:34:51.777Z,30.44
2022-08-25T10:35:47.848Z,30.35
2022-08-25T10:36:47.955Z,30.29
2022-08-25T10:37:48.054Z,30.14
2022-08-25T10:38:48.146Z,30.48
2022-08-25T10:39:54.893Z,30.96
2022-08-25T10:40:49.338Z,31.17
2022-08-25T10:41:48.479Z,30.86
2022-08-25T10:42:48.615Z,30.51
2022-08-25T10:43:48.644Z,30.14
2022-08-25T10:44:48.745Z,29.95
2022-08-25T10:45:48.954Z,29.74
2022-08-25T10:46:48.946Z,30.32
2022-08-25T10:47:49.096Z,30.80
2022-08-25T10:48:49.230Z,30.26
2022-08-25T10:49:50.127Z,29.99
2022-08-25T10:50:49.445Z,29.89
2022-08-25T10:51:51.001Z,29.92
2022-08-25T10:52:49.670Z,30.10
2022-08-25T10:53:49.803Z,30.10
2022-08-25T10:54:49.948Z,30.18
2022-08-25T10:55:50.366Z,30.21
2022-08-25T10:56:50.210Z,30.17
2022-08-25T10:57:50.330Z,30.32
2022-08-25T10:58:50.464Z,30.74
2022-08-25T10:59:50.603Z,30.67
2022-08-25T11:00:50.735Z,30.83
2022-08-25T11:01:53.687Z,31.23
2022-08-25T11:02:50.973Z,31.57
2022-08-25T11:03:51.195Z,31.77
2022-08-25T11:04:51.231Z,31.93
2022-08-25T11:05:51.318Z,32.68
2022-08-25T11:06:54.683Z,33.17
2022-08-25T11:07:51.588Z,33.55
2022-08-25T11:08:51.706Z,33.76
2022-08-25T11:09:51.832Z,34.38
2022-08-25T11:10:52.059Z,34.75
2022-08-25T11:11:52.089Z,34.59
2022-08-25T11:12:52.180Z,34.26
2022-08-25T11:13:52.253Z,34.26
2022-08-25T11:14:52.365Z,33.77
2022-08-25T11:16:15.550Z,33.29
2022-08-25T11:16:53.611Z,33.45
2022-08-25T11:17:52.563Z,33.53
2022-08-25T11:18:52.655Z,33.76
2022-08-25T11:19:52.740Z,33.79
2022-08-25T11:20:52.851Z,33.81
2022-08-25T11:21:52.931Z,33.67
2022-08-25T11:22:53.027Z,33.69
2022-08-25T11:23:53.105Z,33.87
2022-08-25T11:24:53.196Z,33.84
2022-08-25T11:25:53.213Z,33.97
2022-08-25T11:26:53.308Z,34.10
2022-08-25T11:27:53.404Z,33.51
2022-08-25T11:28:53.483Z,33.51
2022-08-25T11:29:53.588Z,33.23
2022-08-25T11:30:53.748Z,33.26
2022-08-25T11:31:54.060Z,33.50
2022-08-25T11:32:53.859Z,33.31
2022-08-25T11:33:53.952Z,32.37
2022-08-25T11:34:53.981Z,32.15
2022-08-25T11:35:54.092Z,31.92
2022-08-25T11:36:54.189Z,31.42
2022-08-25T11:37:54.301Z,30.96
2022-08-25T11:38:54.403Z,31.22
2022-08-25T11:39:54.545Z,31.07
2022-08-25T11:40:54.643Z,30.93
2022-08-25T11:41:54.759Z,30.92
2022-08-25T11:42:54.857Z,31.08
2022-08-25T11:43:54.988Z,31.42
2022-08-25T11:44:55.202Z,32.20
2022-08-25T11:45:55.251Z,32.72
2022-08-25T11:46:55.343Z,33.26
2022-08-25T11:47:55.497Z,33.51
2022-08-25T11:48:55.602Z,34.24
2022-08-25T11:49:55.726Z,34.73
2022-08-25T11:50:55.827Z,35.22
2022-08-25T11:51:55.943Z,35.75
2022-08-25T11:52:57.081Z,36.22
2022-08-25T11:53:56.092Z,36.70
2022-08-25T11:54:56.145Z,36.47
2022-08-25T11:55:56.248Z,35.64
2022-08-25T11:56:56.343Z,35.00
2022-08-25T11:57:56.396Z,34.18
2022-08-25T11:58:56.446Z,33.67
2022-08-25T11:59:56.526Z,33.87
2022-08-25T12:00:56.625Z,33.50
2022-08-25T12:01:56.717Z,33.28
2022-08-25T12:03:00.909Z,34.04
2022-08-25T12:03:57.027Z,33.97
2022-08-25T12:04:57.022Z,33.44
2022-08-25T12:05:57.020Z,32.82
2022-08-25T12:06:57.104Z,33.16
2022-08-25T12:07:57.207Z,33.36
2022-08-25T12:08:57.687Z,33.04
2022-08-25T12:09:57.390Z,33.38
2022-08-25T12:10:57.486Z,33.33
2022-08-25T12:11:57.631Z,32.90
2022-08-25T12:12:57.735Z,33.12
2022-08-25T12:13:57.895Z,33.10
2022-08-25T12:14:57.981Z,32.51
2022-08-25T12:15:58.074Z,32.17
2022-08-25T12:16:58.191Z,31.90
2022-08-25T12:17:58.292Z,31.86
2022-08-25T12:18:58.418Z,31.77
2022-08-25T12:19:58.534Z,31.66
2022-08-25T12:20:58.642Z,31.45
2022-08-25T12:21:58.771Z,31.39
2022-08-25T12:22:58.974Z,31.36
2022-08-25T12:23:59.018Z,31.14
2022-08-25T12:25:00.108Z,30.85
2022-08-25T12:25:59.267Z,31.52
2022-08-25T12:26:59.419Z,32.23
2022-08-25T12:27:59.557Z,33.09
2022-08-25T12:28:59.694Z,33.97
2022-08-25T12:29:59.779Z,34.66
2022-08-25T12:30:59.924Z,35.16
2022-08-25T12:32:04.953Z,35.35
2022-08-25T12:33:01.085Z,34.59
2022-08-25T12:34:00.215Z,33.72
2022-08-25T12:35:00.330Z,33.00
2022-08-25T12:36:00.432Z,32.34
2022-08-25T12:37:00.534Z,31.78
2022-08-25T12:38:00.697Z,31.35
2022-08-25T12:39:00.789Z,30.80
2022-08-25T12:40:01.004Z,30.67
2022-08-25T12:41:01.035Z,30.67
2022-08-25T12:43:01.306Z,30.46
2022-08-25T12:44:01.419Z,30.91
2022-08-25T12:45:01.570Z,31.00
2022-08-25T12:46:02.072Z,31.08
2022-08-25T12:47:01.843Z,31.00
2022-08-25T12:48:01.956Z,31.02
2022-08-25T12:49:02.022Z,31.33
2022-08-25T12:50:02.181Z,31.52
2022-08-25T12:51:02.316Z,31.93
2022-08-25T12:52:02.457Z,32.56
2022-08-25T12:53:02.648Z,33.32
2022-08-25T12:54:05.403Z,34.28
2022-08-25T12:55:02.871Z,34.11
2022-08-25T12:56:03.023Z,34.18
2022-08-25T12:57:03.090Z,33.50